MST,Max TemperatureF,Mean TemperatureF,Min TemperatureF,Max Dew PointF,MeanDew PointF,Min DewpointF,Max Humidity, Mean Humidity, Min Humidity, Max Sea Level PressureIn, Mean Sea Level PressureIn, Min Sea Level PressureIn, Max VisibilityMiles, Mean VisibilityMiles, Min VisibilityMiles, Max Wind SpeedMPH, Mean Wind SpeedMPH, Max Gust SpeedMPH,PrecipitationIn, CloudCover, Events, WindDirDegrees
2014-1-1,10,6,1,10,4,-2,100,84,67,30.35,30.25,30.10,10,9,4,15,5,,0.00,7,,290
2014-1-2,30,19,8,23,12,3,100,88,69,30.24,30.02,29.65,10,8,0,16,7,17,0.00,5,,169
2014-1-3,39,26,10,32,23,5,93,75,65,29.97,29.56,29.32,10,9,1,36,15,47,0.00,4,,273
2014-1-4,10,2,-5,7,-6,-17,100,73,55,30.32,30.20,29.97,10,10,10,22,12,25,0.00,2,,316
2014-1-5,-5,-12,-18,-11,-22,-29,100,69,54,30.65,30.53,30.31,10,9,1,28,18,34,0.00,1,,295
2014-1-6,6,-7,-20,1,-14,-29,100,78,53,30.45,30.21,29.87,10,10,10,15,7,,0.00,3,,195
2014-1-7,21,12,3,16,6,0,92,81,68,30.14,30.04,29.88,10,10,10,18,10,23,0.00,8,,14
2014-1-8,23,13,3,19,9,-2,93,86,78,30.14,29.96,29.74,10,10,10,14,7,,0.00,4,,108
2014-1-9,32,24,15,27,19,12,100,82,69,29.74,29.62,29.56,10,10,10,15,10,,0.00,3,,187
2014-1-10,35,28,21,25,19,12,80,68,59,29.70,29.57,29.51,10,10,10,15,12,,0.00,2,,269
2014-1-11,42,30,19,32,23,12,86,74,61,29.78,29.52,29.26,10,10,10,26,13,45,0.00,3,,230
2014-1-12,39,29,19,28,23,16,93,71,60,29.76,29.52,29.32,10,10,3,30,17,39,0.00,1,,267
2014-1-13,42,30,19,30,24,18,100,75,57,30.06,29.67,29.49,10,10,10,34,14,46,0.00,3,,260
2014-1-14,30,27,24,27,22,16,86,76,69,30.33,30.22,30.04,10,10,10,23,17,32,0.00,5,,276
2014-1-15,41,36,30,30,27,21,86,67,52,30.02,29.86,29.75,10,10,10,33,18,47,0.00,3,,275
2014-1-16,30,24,17,21,19,12,93,73,64,30.30,30.19,29.99,10,10,10,32,22,44,0.00,1,,291
2014-1-17,41,28,15,28,23,12,93,74,57,30.14,29.95,29.84,10,10,10,32,11,41,0.00,1,,244
2014-1-18,41,34,26,28,26,21,80,71,57,30.17,30.00,29.77,10,10,10,34,19,46,0.00,0,,260
2014-1-19,42,37,30,27,25,21,75,61,46,29.99,29.83,29.70,10,10,10,25,14,33,0.00,0,,275
2014-1-20,33,20,8,25,8,0,85,69,60,30.47,30.28,29.99,10,10,10,40,20,59,0.00,1,,309
2014-1-21,32,21,10,23,18,5,92,75,60,30.21,30.13,30.00,10,10,10,28,13,38,0.00,5,,284
2014-1-22,26,12,-2,21,2,-9,85,74,61,30.61,30.43,30.18,10,10,5,23,13,32,0.00,3,,37
2014-1-23,35,14,-7,27,7,-15,100,75,60,30.60,30.33,30.03,10,10,2,21,9,28,0.00,2,,214
2014-1-24,44,38,33,34,30,27,87,74,57,30.08,29.99,29.92,10,10,10,28,17,37,0.00,5,,278
2014-1-25,48,40,33,32,31,28,87,71,53,30.10,29.85,29.64,10,10,10,30,14,40,0.00,4,,271
2014-1-26,37,18,-2,28,5,-11,80,66,45,30.39,30.07,29.65,10,9,1,47,25,61,0.00,2,,319
2014-1-27,6,-2,-9,-6,-9,-17,92,71,48,30.40,30.37,30.34,10,10,10,15,5,20,0.00,0,,309
2014-1-28,21,7,-7,9,-2,-17,100,68,46,30.35,30.11,29.76,10,10,10,14,8,,0.00,0,,222
2014-1-29,35,22,10,21,14,7,86,70,52,29.75,29.61,29.51,10,8,1,20,10,22,0.00,2,,326
2014-1-30,12,2,-7,7,-1,-17,100,75,60,29.99,29.91,29.68,10,10,2,24,10,29,0.00,3,,299
2014-1-31,21,4,-13,9,-3,-26,100,75,45,30.00,29.84,29.70,10,10,4,22,11,32,0.00,1,,252